Share

Suphan Buri, Thailand

11:07 PM ICT on April 23, 2014 (GMT +0700)
Bangkok International (VTBD) Elev 13 ft | 13.92 °N, 100.61 °E | Change Station

Current weather conditions updated 7 minutes ago

Mostly Cloudy
Mostly Cloudy
86 °F
Feels Like 99 °F
N
6
Wind Variable Wind from SSW
Sunrise 6:01 AM
Sunset 6:34 PM
Moon Waning Crescent

Tomorrow is forecast to be Warmer than today.

Pressure 29.77 in
Visibility 6.2 miles
Clouds Few 3000 ft
Mostly Cloudy 30000 ft
Heat Index 99 °F
Dew Point 79 °F
Humidity 79%
Rainfall 0.00 in
Snow Depth Not available.
UV 0 out of 16
Pollen Not available.
Air Quality Not available.
Flu Activity Not available.
METAR VTBD 231600Z 21005KT 9999 FEW030 BKN300 30/26 Q1008 NOSIG

More Conditions Fewer Conditions

Pressure 29.77 in
Visibility 6.2 miles
Clouds Few 3000 ft
Mostly Cloudy 30000 ft
Heat Index 99 °F
Dew Point 79 °F
Humidity 79%
Rainfall 0.00 in
Snow Depth Not available.
UV 0 out of 16
Pollen Not available.
Air Quality Not available.
Flu Activity Not available.
METAR VTBD 231600Z 21005KT 9999 FEW030 BKN300 30/26 Q1008 NOSIG

More Conditions Fewer Conditions

10-Day Weather Forecast

Almanac

Astronomy

Apr. 23, 2014 Rise Set
Actual Time 6:01 AM ICT 6:34 PM ICT
Civil Twilight 5:39 AM ICT 6:56 PM ICT
Nautical Twilight 5:13 AM ICT 7:22 PM ICT
Astronomical Twilight 4:47 AM ICT 7:48 PM ICT
Moon 1:07 AM ICT 1:07 PM ICT
Length of Visible Light 13h 17m
Length of Day
12h 33m
Tomorrow will be 0m 44s longer.
Waning Crescent, 35% of the Moon is Illuminated
Today
Waning Crescent
Apr 29
New
May 6
First Quarter
May 14
Full
May 21
Last Quarter

Today's Extremes

Country Highs Country Lows

Community

  • spring flowers
    spring flowers
  • Earth Day Spectrum Ove' Blue
    Earth Day Spectrum Ove' Blue
  • BARN B&W
    BARN B&W
  • April Sunset
    April Sunset
  • Waiting..
    Waiting..

WunderPhotos

Upload Photos

1,704,319 photos uploaded!

Nearby

Snow Depth

Not available.

Coastal Water Temperatures

Place Temperature
No Stations Reporting

Earthquake Activity

City Distance Mag. Time & Date
No recent earthquake activity has been reported nearby.
Minimum magnitude displayed is 2.5.

Nearby Weather Stations

There are no personal weather stations in this area.

What do you think?

We're not finished. Please let us know what you like, what you don't like, and what you are still missing.